sensor_id;sensor_type;location;lat;lon;timestamp;pressure;altitude;pressure_sealevel;temperature;humidity
49835;BME280;35729;52.090;13.162;2024-02-26T00:00:05;99897.56;;;1.13;95.24
49835;BME280;35729;52.090;13.162;2024-02-26T00:02:43;99892.41;;;1.12;94.99
49835;BME280;35729;52.090;13.162;2024-02-26T00:05:11;99885.50;;;1.09;95.35
49835;BME280;35729;52.090;13.162;2024-02-26T00:07:40;99890.69;;;1.06;95.42
49835;BME280;35729;52.090;13.162;2024-02-26T00:10:09;99896.66;;;1.02;95.25
49835;BME280;35729;52.090;13.162;2024-02-26T00:12:37;99891.50;;;1.01;95.40
49835;BME280;35729;52.090;13.162;2024-02-26T00:15:08;99885.47;;;0.98;95.50
49835;BME280;35729;52.090;13.162;2024-02-26T00:17:37;99878.56;;;0.91;95.50
49835;BME280;35729;52.090;13.162;2024-02-26T00:20:10;99885.44;;;0.89;95.75
49835;BME280;35729;52.090;13.162;2024-02-26T00:22:39;99890.59;;;0.86;95.98
49835;BME280;35729;52.090;13.162;2024-02-26T00:25:13;99881.97;;;0.84;95.86
49835;BME280;35729;52.090;13.162;2024-02-26T00:27:42;99881.97;;;0.81;96.00
49835;BME280;35729;52.090;13.162;2024-02-26T00:30:10;99887.09;;;0.79;96.10
49835;BME280;35729;52.090;13.162;2024-02-26T00:32:39;99885.38;;;0.77;96.13
49835;BME280;35729;52.090;13.162;2024-02-26T00:35:11;99887.97;;;0.77;96.04
49835;BME280;35729;52.090;13.162;2024-02-26T00:37:39;99879.38;;;0.75;96.22
49835;BME280;35729;52.090;13.162;2024-02-26T00:40:09;99869.00;;;0.72;96.06
49835;BME280;35729;52.090;13.162;2024-02-26T00:42:38;99873.31;;;0.70;96.36
49835;BME280;35729;52.090;13.162;2024-02-26T00:45:11;99867.28;;;0.66;96.16
49835;BME280;35729;52.090;13.162;2024-02-26T00:47:39;99861.22;;;0.64;96.32
49835;BME280;35729;52.090;13.162;2024-02-26T00:50:12;99860.34;;;0.60;96.25
49835;BME280;35729;52.090;13.162;2024-02-26T00:52:41;99856.03;;;0.56;96.31
49835;BME280;35729;52.090;13.162;2024-02-26T00:55:09;99857.72;;;0.53;96.40
49835;BME280;35729;52.090;13.162;2024-02-26T00:57:38;99850.84;;;0.48;96.48
49835;BME280;35729;52.090;13.162;2024-02-26T01:00:07;99843.06;;;0.44;96.77
49835;BME280;35729;52.090;13.162;2024-02-26T01:02:36;99838.75;;;0.38;96.74
49835;BME280;35729;52.090;13.162;2024-02-26T01:05:07;99844.72;;;0.32;96.71
49835;BME280;35729;52.090;13.162;2024-02-26T01:07:39;99846.41;;;0.27;97.01
49835;BME280;35729;52.090;13.162;2024-02-26T01:10:08;99848.13;;;0.25;97.03
49835;BME280;35729;52.090;13.162;2024-02-26T01:12:37;99849.84;;;0.23;97.18
49835;BME280;35729;52.090;13.162;2024-02-26T01:15:06;99848.09;;;0.22;97.17
49835;BME280;35729;52.090;13.162;2024-02-26T01:17:35;99848.94;;;0.21;97.03
49835;BME280;35729;52.090;13.162;2024-02-26T01:20:06;99848.09;;;0.19;97.24
49835;BME280;35729;52.090;13.162;2024-02-26T01:22:35;99846.38;;;0.18;97.15
49835;BME280;35729;52.090;13.162;2024-02-26T01:25:07;99851.53;;;0.18;97.05
49835;BME280;35729;52.090;13.162;2024-02-26T01:27:35;99850.66;;;0.18;97.09
49835;BME280;35729;52.090;13.162;2024-02-26T01:30:06;99854.09;;;0.17;97.37
49835;BME280;35729;52.090;13.162;2024-02-26T01:32:35;99851.50;;;0.15;97.31
49835;BME280;35729;52.090;13.162;2024-02-26T01:35:04;99853.22;;;0.13;97.13
49835;BME280;35729;52.090;13.162;2024-02-26T01:37:35;99853.19;;;0.10;97.16
49835;BME280;35729;52.090;13.162;2024-02-26T01:40:08;99854.91;;;0.08;97.42
49835;BME280;35729;52.090;13.162;2024-02-26T01:42:38;99854.03;;;0.06;97.45
49835;BME280;35729;52.090;13.162;2024-02-26T01:45:12;99855.72;;;0.02;97.19
49835;BME280;35729;52.090;13.162;2024-02-26T01:47:48;99853.97;;;-0.01;97.52
49835;BME280;35729;52.090;13.162;2024-02-26T01:50:16;99848.81;;;-0.04;97.54
49835;BME280;35729;52.090;13.162;2024-02-26T01:52:46;99847.91;;;-0.06;97.57
49835;BME280;35729;52.090;13.162;2024-02-26T01:55:17;99841.88;;;-0.08;97.51
49835;BME280;35729;52.090;13.162;2024-02-26T01:57:49;99831.56;;;-0.12;97.76
49835;BME280;35729;52.090;13.162;2024-02-26T02:00:19;99838.41;;;-0.14;97.67
49835;BME280;35729;52.090;13.162;2024-02-26T02:02:49;99840.97;;;-0.18;97.76
49835;BME280;35729;52.090;13.162;2024-02-26T02:05:20;99843.50;;;-0.21;97.73
49835;BME280;35729;52.090;13.162;2024-02-26T02:07:49;99848.66;;;-0.22;97.74
49835;BME280;35729;52.090;13.162;2024-02-26T02:10:21;99844.34;;;-0.26;98.07
49835;BME280;35729;52.090;13.162;2024-02-26T02:12:51;99840.88;;;-0.28;98.03
49835;BME280;35729;52.090;13.162;2024-02-26T02:15:20;99844.28;;;-0.32;98.08
49835;BME280;35729;52.090;13.162;2024-02-26T02:17:48;99846.81;;;-0.37;97.93
49835;BME280;35729;52.090;13.162;2024-02-26T02:20:17;99849.34;;;-0.42;98.05
49835;BME280;35729;52.090;13.162;2024-02-26T02:22:49;99846.75;;;-0.45;98.18
49835;BME280;35729;52.090;13.162;2024-02-26T02:25:17;99845.03;;;-0.46;98.28
49835;BME280;35729;52.090;13.162;2024-02-26T02:27:45;99843.28;;;-0.48;98.42
49835;BME280;35729;52.090;13.162;2024-02-26T02:30:14;99839.84;;;-0.49;98.53
49835;BME280;35729;52.090;13.162;2024-02-26T02:32:43;99838.97;;;-0.53;98.26
49835;BME280;35729;52.090;13.162;2024-02-26T02:35:12;99825.19;;;-0.56;98.25
49835;BME280;35729;52.090;13.162;2024-02-26T02:37:41;99829.44;;;-0.58;98.53
49835;BME280;35729;52.090;13.162;2024-02-26T02:40:12;99830.28;;;-0.62;98.60
49835;BME280;35729;52.090;13.162;2024-02-26T02:42:41;99832.84;;;-0.64;98.50
49835;BME280;35729;52.090;13.162;2024-02-26T02:45:09;99822.50;;;-0.69;98.42
49835;BME280;35729;52.090;13.162;2024-02-26T02:47:38;99824.16;;;-0.72;98.50
49835;BME280;35729;52.090;13.162;2024-02-26T02:50:07;99823.25;;;-0.80;98.67
49835;BME280;35729;52.090;13.162;2024-02-26T02:52:35;99836.13;;;-0.77;98.91
49835;BME280;35729;52.090;13.162;2024-02-26T02:55:04;99838.72;;;-0.79;98.95
49835;BME280;35729;52.090;13.162;2024-02-26T02:57:35;99826.66;;;-0.83;98.98
49835;BME280;35729;52.090;13.162;2024-02-26T03:00:07;99828.34;;;-0.85;98.79
49835;BME280;35729;52.090;13.162;2024-02-26T03:02:36;99831.75;;;-0.88;98.92
49835;BME280;35729;52.090;13.162;2024-02-26T03:05:05;99825.69;;;-0.91;99.10
49835;BME280;35729;52.090;13.162;2024-02-26T03:07:34;99825.69;;;-0.93;99.16
49835;BME280;35729;52.090;13.162;2024-02-26T03:10:02;99834.25;;;-0.94;99.25
49835;BME280;35729;52.090;13.162;2024-02-26T03:12:32;99836.81;;;-0.95;99.32
49835;BME280;35729;52.090;13.162;2024-02-26T03:15:03;99829.94;;;-0.95;99.15
49835;BME280;35729;52.090;13.162;2024-02-26T03:17:32;99835.97;;;-0.96;99.37
49835;BME280;35729;52.090;13.162;2024-02-26T03:20:00;99835.97;;;-0.96;99.44
49835;BME280;35729;52.090;13.162;2024-02-26T03:22:30;99837.66;;;-0.98;99.36
49835;BME280;35729;52.090;13.162;2024-02-26T03:24:59;99845.38;;;-0.98;99.41
49835;BME280;35729;52.090;13.162;2024-02-26T03:27:27;99847.06;;;-1.00;99.38
49835;BME280;35729;52.090;13.162;2024-02-26T03:29:56;99842.75;;;-1.01;99.38
49835;BME280;35729;52.090;13.162;2024-02-26T03:32:27;99841.06;;;-1.02;99.58
49835;BME280;35729;52.090;13.162;2024-02-26T03:34:55;99836.75;;;-1.05;99.53
49835;BME280;35729;52.090;13.162;2024-02-26T03:37:25;99841.00;;;-1.05;99.64
49835;BME280;35729;52.090;13.162;2024-02-26T03:39:53;99846.16;;;-1.05;99.80
49835;BME280;35729;52.090;13.162;2024-02-26T03:42:23;99841.84;;;-1.08;99.86
49835;BME280;35729;52.090;13.162;2024-02-26T03:44:51;99841.00;;;-1.08;99.85
49835;BME280;35729;52.090;13.162;2024-02-26T03:47:20;99837.53;;;-1.09;100.00
49835;BME280;35729;52.090;13.162;2024-02-26T03:49:51;99840.09;;;-1.10;100.00
49835;BME280;35729;52.090;13.162;2024-02-26T03:52:20;99841.81;;;-1.09;100.00
49835;BME280;35729;52.090;13.162;2024-02-26T03:54:48;99849.56;;;-1.09;100.00
49835;BME280;35729;52.090;13.162;2024-02-26T03:57:16;99843.56;;;-1.07;100.00
49835;BME280;35729;52.090;13.162;2024-02-26T03:59:45;99853.03;;;-1.06;100.00
49835;BME280;35729;52.090;13.162;2024-02-26T04:02:13;99854.75;;;-1.05;100.00
49835;BME280;35729;52.090;13.162;2024-02-26T04:04:42;99858.19;;;-1.03;100.00
49835;BME280;35729;52.090;13.162;2024-02-26T04:07:13;99862.50;;;-1.02;100.00
49835;BME280;35729;52.090;13.162;2024-02-26T04:09:42;99860.78;;;-1.01;100.00
49835;BME280;35729;52.090;13.162;2024-02-26T04:12:10;99863.34;;;-1.01;100.00
49835;BME280;35729;52.090;13.162;2024-02-26T04:14:39;99870.25;;;-1.00;100.00
49835;BME280;35729;52.090;13.162;2024-02-26T04:17:07;99868.50;;;-1.01;100.00
49835;BME280;35729;52.090;13.162;2024-02-26T04:19:36;99873.66;;;-1.01;100.00
49835;BME280;35729;52.090;13.162;2024-02-26T04:22:05;99871.94;;;-1.02;100.00
49835;BME280;35729;52.090;13.162;2024-02-26T04:24:36;99873.63;;;-1.04;100.00
49835;BME280;35729;52.090;13.162;2024-02-26T04:27:04;99868.47;;;-1.04;100.00
49835;BME280;35729;52.090;13.162;2024-02-26T04:29:33;99871.06;;;-1.06;100.00
49835;BME280;35729;52.090;13.162;2024-02-26T04:32:01;99872.78;;;-1.05;100.00
49835;BME280;35729;52.090;13.162;2024-02-26T04:34:31;99883.94;;;-1.04;100.00
49835;BME280;35729;52.090;13.162;2024-02-26T04:36:59;99881.38;;;-1.03;100.00
49835;BME280;35729;52.090;13.162;2024-02-26T04:39:27;99890.81;;;-1.02;100.00
49835;BME280;35729;52.090;13.162;2024-02-26T04:41:58;99890.84;;;-1.00;100.00
49835;BME280;35729;52.090;13.162;2024-02-26T04:44:29;99898.59;;;-0.99;100.00
49835;BME280;35729;52.090;13.162;2024-02-26T04:46:58;99896.88;;;-0.98;100.00
49835;BME280;35729;52.090;13.162;2024-02-26T04:49:27;99902.94;;;-0.96;100.00
49835;BME280;35729;52.090;13.162;2024-02-26T04:51:55;99902.06;;;-0.95;100.00
49835;BME280;35729;52.090;13.162;2024-02-26T04:54:24;99902.94;;;-0.96;100.00
49835;BME280;35729;52.090;13.162;2024-02-26T04:56:52;99909.78;;;-0.95;100.00
49835;BME280;35729;52.090;13.162;2024-02-26T04:59:23;99906.38;;;-0.94;100.00
49835;BME280;35729;52.090;13.162;2024-02-26T05:01:52;99912.41;;;-0.93;100.00
49835;BME280;35729;52.090;13.162;2024-02-26T05:04:20;99900.38;;;-0.93;100.00
49835;BME280;35729;52.090;13.162;2024-02-26T05:06:49;99899.53;;;-0.93;100.00
49835;BME280;35729;52.090;13.162;2024-02-26T05:09:18;99901.19;;;-0.95;100.00
49835;BME280;35729;52.090;13.162;2024-02-26T05:11:47;99901.22;;;-0.94;100.00
49835;BME280;35729;52.090;13.162;2024-02-26T05:14:15;99886.56;;;-1.00;100.00
49835;BME280;35729;52.090;13.162;2024-02-26T05:16:47;99895.19;;;-0.96;100.00
49835;BME280;35729;52.090;13.162;2024-02-26T05:19:15;99890.91;;;-0.97;100.00
49835;BME280;35729;52.090;13.162;2024-02-26T05:21:44;99895.16;;;-0.98;100.00
49835;BME280;35729;52.090;13.162;2024-02-26T05:24:14;99897.72;;;-0.99;100.00
49835;BME280;35729;52.090;13.162;2024-02-26T05:26:43;99908.88;;;-1.00;100.00
49835;BME280;35729;52.090;13.162;2024-02-26T05:29:12;99908.00;;;-1.02;100.00
49835;BME280;35729;52.090;13.162;2024-02-26T05:31:42;99895.91;;;-1.06;100.00
49835;BME280;35729;52.090;13.162;2024-02-26T05:34:13;99907.91;;;-1.10;100.00
49835;BME280;35729;52.090;13.162;2024-02-26T05:36:41;99903.59;;;-1.12;100.00
49835;BME280;35729;52.090;13.162;2024-02-26T05:39:10;99903.53;;;-1.16;100.00
49835;BME280;35729;52.090;13.162;2024-02-26T05:41:38;99904.38;;;-1.17;100.00
49835;BME280;35729;52.090;13.162;2024-02-26T05:44:08;99906.09;;;-1.17;100.00
49835;BME280;35729;52.090;13.162;2024-02-26T05:46:37;99912.09;;;-1.18;100.00
49835;BME280;35729;52.090;13.162;2024-02-26T05:49:07;99912.06;;;-1.20;100.00
49835;BME280;35729;52.090;13.162;2024-02-26T05:51:38;99924.94;;;-1.20;100.00
49835;BME280;35729;52.090;13.162;2024-02-26T05:54:07;99921.47;;;-1.22;100.00
49835;BME280;35729;52.090;13.162;2024-02-26T05:56:35;99920.63;;;-1.22;100.00
49835;BME280;35729;52.090;13.162;2024-02-26T05:59:04;99927.44;;;-1.24;100.00
49835;BME280;35729;52.090;13.162;2024-02-26T06:01:38;99927.44;;;-1.24;100.00
49835;BME280;35729;52.090;13.162;2024-02-26T06:04:07;99931.75;;;-1.25;100.00
49835;BME280;35729;52.090;13.162;2024-02-26T06:06:38;99928.34;;;-1.24;100.00
49835;BME280;35729;52.090;13.162;2024-02-26T06:09:06;99941.22;;;-1.22;100.00
49835;BME280;35729;52.090;13.162;2024-02-26T06:11:36;99942.97;;;-1.20;100.00
49835;BME280;35729;52.090;13.162;2024-02-26T06:14:05;99942.91;;;-1.23;100.00
49835;BME280;35729;52.090;13.162;2024-02-26T06:16:34;99954.16;;;-1.16;100.00
49835;BME280;35729;52.090;13.162;2024-02-26T06:19:02;99960.19;;;-1.14;100.00
49835;BME280;35729;52.090;13.162;2024-02-26T06:21:30;99965.38;;;-1.11;100.00
49835;BME280;35729;52.090;13.162;2024-02-26T06:24:02;99968.81;;;-1.10;100.00
49835;BME280;35729;52.090;13.162;2024-02-26T06:26:36;99961.97;;;-1.10;100.00
49835;BME280;35729;52.090;13.162;2024-02-26T06:29:05;99970.56;;;-1.06;100.00
49835;BME280;35729;52.090;13.162;2024-02-26T06:31:33;99969.75;;;-1.05;100.00
49835;BME280;35729;52.090;13.162;2024-02-26T06:34:02;99975.78;;;-1.02;100.00
49835;BME280;35729;52.090;13.162;2024-02-26T06:36:31;99969.84;;;-0.98;100.00
49835;BME280;35729;52.090;13.162;2024-02-26T06:39:02;99977.63;;;-0.94;100.00
49835;BME280;35729;52.090;13.162;2024-02-26T06:41:31;99977.63;;;-0.91;100.00
49835;BME280;35729;52.090;13.162;2024-02-26T06:44:05;99974.28;;;-0.87;100.00
49835;BME280;35729;52.090;13.162;2024-02-26T06:46:34;99977.72;;;-0.84;100.00
49835;BME280;35729;52.090;13.162;2024-02-26T06:49:02;99986.38;;;-0.80;100.00
49835;BME280;35729;52.090;13.162;2024-02-26T06:51:31;99982.97;;;-0.76;100.00
49835;BME280;35729;52.090;13.162;2024-02-26T06:54:02;99983.03;;;-0.73;100.00
49835;BME280;35729;52.090;13.162;2024-02-26T06:56:31;99977.03;;;-0.70;100.00
49835;BME280;35729;52.090;13.162;2024-02-26T06:58:59;99977.94;;;-0.67;100.00
49835;BME280;35729;52.090;13.162;2024-02-26T07:01:28;99983.16;;;-0.62;100.00
49835;BME280;35729;52.090;13.162;2024-02-26T07:03:56;99978.94;;;-0.57;100.00
49835;BME280;35729;52.090;13.162;2024-02-26T07:06:25;99982.41;;;-0.52;100.00
49835;BME280;35729;52.090;13.162;2024-02-26T07:08:53;99977.28;;;-0.48;100.00
49835;BME280;35729;52.090;13.162;2024-02-26T07:11:24;99975.66;;;-0.40;100.00
49835;BME280;35729;52.090;13.162;2024-02-26T07:13:53;99981.75;;;-0.34;100.00
49835;BME280;35729;52.090;13.162;2024-02-26T07:16:21;99981.81;;;-0.27;100.00
49835;BME280;35729;52.090;13.162;2024-02-26T07:18:50;99978.41;;;-0.23;100.00
49835;BME280;35729;52.090;13.162;2024-02-26T07:21:18;99978.47;;;-0.17;100.00
49835;BME280;35729;52.090;13.162;2024-02-26T07:23:47;99969.94;;;-0.11;100.00
49835;BME280;35729;52.090;13.162;2024-02-26T07:26:15;99966.53;;;-0.06;100.00
49835;BME280;35729;52.090;13.162;2024-02-26T07:28:47;99975.19;;;0.01;100.00
49835;BME280;35729;52.090;13.162;2024-02-26T07:31:17;99970.97;;;0.08;100.00
49835;BME280;35729;52.090;13.162;2024-02-26T07:33:45;99971.03;;;0.15;100.00
49835;BME280;35729;52.090;13.162;2024-02-26T07:36:14;99974.53;;;0.24;100.00
49835;BME280;35729;52.090;13.162;2024-02-26T07:38:43;99978.03;;;0.32;100.00
49835;BME280;35729;52.090;13.162;2024-02-26T07:41:11;99975.47;;;0.37;100.00
49835;BME280;35729;52.090;13.162;2024-02-26T07:43:40;99974.69;;;0.44;100.00
49835;BME280;35729;52.090;13.162;2024-02-26T07:46:13;99976.47;;;0.50;100.00
49835;BME280;35729;52.090;13.162;2024-02-26T07:48:42;99973.03;;;0.57;100.00
49835;BME280;35729;52.090;13.162;2024-02-26T07:51:12;99981.72;;;0.63;100.00
49835;BME280;35729;52.090;13.162;2024-02-26T07:53:41;99976.59;;;0.71;100.00
49835;BME280;35729;52.090;13.162;2024-02-26T07:56:09;99974.06;;;0.77;100.00
49835;BME280;35729;52.090;13.162;2024-02-26T07:58:38;99979.25;;;0.85;100.00
49835;BME280;35729;52.090;13.162;2024-02-26T08:01:06;99978.44;;;0.94;100.00
49835;BME280;35729;52.090;13.162;2024-02-26T08:03:37;99978.50;;;1.06;100.00
49835;BME280;35729;52.090;13.162;2024-02-26T08:06:07;99980.28;;;1.18;100.00
49835;BME280;35729;52.090;13.162;2024-02-26T08:08:36;99982.91;;;1.30;100.00
49835;BME280;35729;52.090;13.162;2024-02-26T08:11:04;99984.69;;;1.39;100.00
49835;BME280;35729;52.090;13.162;2024-02-26T08:13:34;99985.56;;;1.48;100.00
49835;BME280;35729;52.090;13.162;2024-02-26T08:16:03;99983.88;;;1.56;100.00
49835;BME280;35729;52.090;13.162;2024-02-26T08:18:31;99988.16;;;1.63;100.00
49835;BME280;35729;52.090;13.162;2024-02-26T08:21:03;99993.38;;;1.71;100.00
49835;BME280;35729;52.090;13.162;2024-02-26T08:23:32;99998.59;;;1.78;100.00
49835;BME280;35729;52.090;13.162;2024-02-26T08:26:00;99996.84;;;1.87;100.00
49835;BME280;35729;52.090;13.162;2024-02-26T08:28:29;99994.31;;;1.96;100.00
49835;BME280;35729;52.090;13.162;2024-02-26T08:30:58;99997.75;;;2.01;100.00
49835;BME280;35729;52.090;13.162;2024-02-26T08:33:26;99998.59;;;2.11;100.00
49835;BME280;35729;52.090;13.162;2024-02-26T08:35:55;100001.22;;;2.19;100.00
49835;BME280;35729;52.090;13.162;2024-02-26T08:38:26;100001.22;;;2.28;100.00
49835;BME280;35729;52.090;13.162;2024-02-26T08:40:55;100000.34;;;2.38;100.00
49835;BME280;35729;52.090;13.162;2024-02-26T08:43:23;100006.41;;;2.47;100.00
49835;BME280;35729;52.090;13.162;2024-02-26T08:46:08;100001.22;;;2.56;100.00
49835;BME280;35729;52.090;13.162;2024-02-26T08:48:37;100003.81;;;2.67;100.00
49835;BME280;35729;52.090;13.162;2024-02-26T08:51:07;99992.56;;;2.79;100.00
49835;BME280;35729;52.090;13.162;2024-02-26T08:53:39;99987.34;;;2.91;100.00
49835;BME280;35729;52.090;13.162;2024-02-26T08:56:07;99996.81;;;3.03;100.00
49835;BME280;35729;52.090;13.162;2024-02-26T08:58:36;99990.72;;;3.13;100.00
49835;BME280;35729;52.090;13.162;2024-02-26T09:01:05;99991.53;;;3.26;100.00
49835;BME280;35729;52.090;13.162;2024-02-26T09:03:33;99991.50;;;3.35;100.00
49835;BME280;35729;52.090;13.162;2024-02-26T09:06:02;100002.69;;;3.47;100.00
49835;BME280;35729;52.090;13.162;2024-02-26T09:08:32;99997.47;;;3.54;100.00
49835;BME280;35729;52.090;13.162;2024-02-26T09:11:04;100001.75;;;3.63;100.00
49835;BME280;35729;52.090;13.162;2024-02-26T09:13:33;99989.59;;;3.70;100.00
49835;BME280;35729;52.090;13.162;2024-02-26T09:16:01;99993.00;;;3.77;100.00
49835;BME280;35729;52.090;13.162;2024-02-26T09:18:30;99988.69;;;3.82;100.00
49835;BME280;35729;52.090;13.162;2024-02-26T09:20:58;99990.38;;;3.90;100.00
49835;BME280;35729;52.090;13.162;2024-02-26T09:23:27;99994.59;;;3.99;100.00
49835;BME280;35729;52.090;13.162;2024-02-26T09:25:55;99990.25;;;4.06;100.00
49835;BME280;35729;52.090;13.162;2024-02-26T09:28:27;99991.91;;;4.13;100.00
49835;BME280;35729;52.090;13.162;2024-02-26T09:30:57;99986.69;;;4.19;100.00
49835;BME280;35729;52.090;13.162;2024-02-26T09:33:25;99990.09;;;4.28;100.00
49835;BME280;35729;52.090;13.162;2024-02-26T09:35:54;99995.22;;;4.35;100.00
49835;BME280;35729;52.090;13.162;2024-02-26T09:38:22;99991.69;;;4.43;100.00
49835;BME280;35729;52.090;13.162;2024-02-26T09:40:51;99995.06;;;4.52;100.00
49835;BME280;35729;52.090;13.162;2024-02-26T09:43:21;99997.63;;;4.60;100.00
49835;BME280;35729;52.090;13.162;2024-02-26T09:45:53;100002.75;;;4.68;100.00
49835;BME280;35729;52.090;13.162;2024-02-26T09:48:22;99998.28;;;4.78;100.00
49835;BME280;35729;52.090;13.162;2024-02-26T09:50:52;99996.50;;;4.86;100.00
49835;BME280;35729;52.090;13.162;2024-02-26T09:53:22;99999.00;;;4.97;100.00
49835;BME280;35729;52.090;13.162;2024-02-26T09:55:50;100000.59;;;5.07;100.00
49835;BME280;35729;52.090;13.162;2024-02-26T09:58:20;100000.47;;;5.18;100.00
49835;BME280;35729;52.090;13.162;2024-02-26T10:00:56;99994.28;;;5.30;100.00
49835;BME280;35729;52.090;13.162;2024-02-26T10:03:30;99995.84;;;5.43;100.00
49835;BME280;35729;52.090;13.162;2024-02-26T10:05:59;99996.56;;;5.56;99.37
49835;BME280;35729;52.090;13.162;2024-02-26T10:08:31;99995.50;;;5.69;99.28
49835;BME280;35729;52.090;13.162;2024-02-26T10:11:00;99999.66;;;5.83;98.84
49835;BME280;35729;52.090;13.162;2024-02-26T10:13:29;99989.88;;;5.97;98.35
49835;BME280;35729;52.090;13.162;2024-02-26T10:16:00;99988.91;;;6.09;98.70
49835;BME280;35729;52.090;13.162;2024-02-26T10:18:47;99998.22;;;6.23;98.03
49835;BME280;35729;52.090;13.162;2024-02-26T10:21:16;99992.84;;;6.33;97.54
49835;BME280;35729;52.090;13.162;2024-02-26T10:23:46;99997.84;;;6.47;97.44
49835;BME280;35729;52.090;13.162;2024-02-26T10:26:16;100008.06;;;6.58;96.95
49835;BME280;35729;52.090;13.162;2024-02-26T10:28:45;99994.84;;;6.69;96.09
49835;BME280;35729;52.090;13.162;2024-02-26T10:31:16;99999.00;;;6.79;95.29
49835;BME280;35729;52.090;13.162;2024-02-26T10:33:45;100004.03;;;6.90;94.54
49835;BME280;35729;52.090;13.162;2024-02-26T10:36:14;100002.09;;;7.00;94.07
49835;BME280;35729;52.090;13.162;2024-02-26T10:38:43;99999.38;;;7.08;93.25
49835;BME280;35729;52.090;13.162;2024-02-26T10:41:13;100003.50;;;7.18;94.32
49835;BME280;35729;52.090;13.162;2024-02-26T10:43:42;100004.19;;;7.26;93.43
49835;BME280;35729;52.090;13.162;2024-02-26T10:46:11;99993.56;;;7.37;92.64
49835;BME280;35729;52.090;13.162;2024-02-26T10:48:49;99999.41;;;7.48;92.59
49835;BME280;35729;52.090;13.162;2024-02-26T10:51:21;99997.47;;;7.58;92.34
49835;BME280;35729;52.090;13.162;2024-02-26T10:53:51;99998.13;;;7.70;91.89
49835;BME280;35729;52.090;13.162;2024-02-26T10:56:24;99996.97;;;7.81;91.88
49835;BME280;35729;52.090;13.162;2024-02-26T10:58:55;99994.09;;;7.94;90.90
49835;BME280;35729;52.090;13.162;2024-02-26T11:01:24;99994.66;;;8.07;90.31
49835;BME280;35729;52.090;13.162;2024-02-26T11:03:57;99989.94;;;8.21;89.77
49835;BME280;35729;52.090;13.162;2024-02-26T11:06:27;99987.88;;;8.36;88.31
49835;BME280;35729;52.090;13.162;2024-02-26T11:09:00;99994.53;;;8.49;86.66
49835;BME280;35729;52.090;13.162;2024-02-26T11:11:29;99998.56;;;8.62;85.87
49835;BME280;35729;52.090;13.162;2024-02-26T11:14:01;99988.63;;;8.75;84.26
49835;BME280;35729;52.090;13.162;2024-02-26T11:16:32;99990.97;;;8.86;83.03
49835;BME280;35729;52.090;13.162;2024-02-26T11:19:06;99986.22;;;9.01;82.86
49835;BME280;35729;52.090;13.162;2024-02-26T11:21:41;99992.00;;;9.12;78.68
49835;BME280;35729;52.090;13.162;2024-02-26T11:24:13;99983.88;;;9.23;78.68
49835;BME280;35729;52.090;13.162;2024-02-26T11:26:46;99980.13;;;9.32;77.50
49835;BME280;35729;52.090;13.162;2024-02-26T11:29:21;99982.44;;;9.42;79.43
49835;BME280;35729;52.090;13.162;2024-02-26T11:31:52;99987.31;;;9.55;78.42
49835;BME280;35729;52.090;13.162;2024-02-26T11:34:25;99987.91;;;9.65;77.33
49835;BME280;35729;52.090;13.162;2024-02-26T11:36:53;99975.38;;;9.74;76.65
49835;BME280;35729;52.090;13.162;2024-02-26T11:39:23;99979.44;;;9.85;75.73
49835;BME280;35729;52.090;13.162;2024-02-26T11:41:52;99973.06;;;9.92;74.91
49835;BME280;35729;52.090;13.162;2024-02-26T11:44:28;99972.88;;;9.98;74.04
49835;BME280;35729;52.090;13.162;2024-02-26T11:46:57;99977.09;;;10.04;75.00
49835;BME280;35729;52.090;13.162;2024-02-26T11:49:32;99979.47;;;10.11;71.95
49835;BME280;35729;52.090;13.162;2024-02-26T11:52:05;99976.66;;;10.18;74.39
49835;BME280;35729;52.090;13.162;2024-02-26T11:54:47;99972.06;;;10.24;71.04
49835;BME280;35729;52.090;13.162;2024-02-26T11:57:24;99973.63;;;10.30;74.06
49835;BME280;35729;52.090;13.162;2024-02-26T12:00:11;99977.88;;;10.34;72.56
49835;BME280;35729;52.090;13.162;2024-02-26T12:02:44;99977.69;;;10.40;74.03
49835;BME280;35729;52.090;13.162;2024-02-26T12:05:22;99985.41;;;10.45;72.99
49835;BME280;35729;52.090;13.162;2024-02-26T12:07:54;99987.81;;;10.51;73.93
49835;BME280;35729;52.090;13.162;2024-02-26T12:10:25;99986.75;;;10.57;73.77
49835;BME280;35729;52.090;13.162;2024-02-26T12:12:55;99986.56;;;10.63;73.51
49835;BME280;35729;52.090;13.162;2024-02-26T12:15:31;99986.34;;;10.69;73.04
49835;BME280;35729;52.090;13.162;2024-02-26T12:18:05;99986.97;;;10.76;73.31
49835;BME280;35729;52.090;13.162;2024-02-26T12:20:37;99978.97;;;10.81;71.68
49835;BME280;35729;52.090;13.162;2024-02-26T12:23:06;99977.81;;;10.88;72.41
49835;BME280;35729;52.090;13.162;2024-02-26T12:25:35;99976.81;;;10.92;70.96
49835;BME280;35729;52.090;13.162;2024-02-26T12:28:04;99970.59;;;10.95;72.27
49835;BME280;35729;52.090;13.162;2024-02-26T12:30:32;99970.47;;;10.98;71.80
49835;BME280;35729;52.090;13.162;2024-02-26T12:33:01;99979.03;;;11.03;71.77
49835;BME280;35729;52.090;13.162;2024-02-26T12:35:32;99979.91;;;11.03;70.42
49835;BME280;35729;52.090;13.162;2024-02-26T12:38:03;99978.97;;;11.04;70.91
49835;BME280;35729;52.090;13.162;2024-02-26T12:40:32;99979.03;;;11.03;70.76
49835;BME280;35729;52.090;13.162;2024-02-26T12:43:01;99982.47;;;11.05;70.95
49835;BME280;35729;52.090;13.162;2024-02-26T12:45:29;99978.94;;;11.06;71.22
49835;BME280;35729;52.090;13.162;2024-02-26T12:48:05;99977.09;;;11.08;71.07
49835;BME280;35729;52.090;13.162;2024-02-26T12:50:34;99981.38;;;11.11;70.78
49835;BME280;35729;52.090;13.162;2024-02-26T12:53:05;99981.28;;;11.14;69.30
49835;BME280;35729;52.090;13.162;2024-02-26T12:55:34;99990.81;;;11.16;70.81
49835;BME280;35729;52.090;13.162;2024-02-26T12:58:05;99983.69;;;11.20;70.38
49835;BME280;35729;52.090;13.162;2024-02-26T13:00:34;99986.13;;;11.24;70.59
49835;BME280;35729;52.090;13.162;2024-02-26T13:03:03;99976.38;;;11.28;70.42